VLG19K DTNH-LEMG
Flight info
| Callsign | VLG19K |
|---|---|
| Flight time | 2h 7m |
| Altitude | 36000 |
| Route | LOBNA1C LOBNA DCT PERAM UL874 DIMAO UZ888 BABOR UA31 BNA UZ444 DAHRA UA411 MOS DCT CARBO M744 GOLFO/N0452F350 DCT EPATA |
| Aircraft | A321/M-SDE3FGHIRWY/LB1 |
Departure
| Time | 2026-05-04 14:00 |
|---|---|
| Airport | Enfidha - Hammamet International Airport (DTNH) |
Arrival
| Time | 2026-05-04 16:07 |
|---|---|
| Airport | Málaga-Costa del Sol Airport (LEMG) |
| Time | Latitude | Longitude | Altitude | Speed | Heading |
|---|---|---|---|---|---|
| 2026-05-04 13:20 | 36.08242 | 10.43696 | 20 ft | 0 kts | 47° |
| 2026-05-04 13:48 | 36.08238 | 10.43691 | 18 ft | 4 kts | 48° |
| 2026-05-04 13:48 | 36.08221 | 10.43665 | 46 ft | 4 kts | 55° |
| 2026-05-04 13:48 | 36.08207 | 10.43637 | 21 ft | 4 kts | 65° |
| 2026-05-04 13:49 | 36.08198 | 10.43606 | 22 ft | 4 kts | 86° |
| 2026-05-04 13:49 | 36.08202 | 10.43579 | 22 ft | 2 kts | 134° |
| 2026-05-04 13:49 | 36.08203 | 10.43578 | 23 ft | 0 kts | 135° |
| 2026-05-04 13:52 | 36.08199 | 10.43583 | 22 ft | 0 kts | 135° |
| 2026-05-04 13:52 | 36.08183 | 10.43603 | 21 ft | 8 kts | 135° |
| 2026-05-04 13:53 | 36.08137 | 10.43660 | 19 ft | 11 kts | 135° |
| 2026-05-04 13:53 | 36.08077 | 10.43732 | 18 ft | 13 kts | 135° |
| 2026-05-04 13:53 | 36.07991 | 10.43793 | 18 ft | 16 kts | 173° |
| 2026-05-04 13:54 | 36.07786 | 10.43787 | 18 ft | 11 kts | 198° |
| 2026-05-04 13:54 | 36.07748 | 10.43711 | 18 ft | 11 kts | 264° |
| 2026-05-04 13:54 | 36.07748 | 10.43501 | 19 ft | 13 kts | 270° |
| 2026-05-04 13:55 | 36.07749 | 10.43387 | 19 ft | 14 kts | 271° |
| 2026-05-04 13:55 | 36.07749 | 10.43147 | 19 ft | 14 kts | 270° |
| 2026-05-04 13:55 | 36.07750 | 10.43023 | 20 ft | 15 kts | 269° |
| 2026-05-04 13:56 | 36.07748 | 10.42897 | 20 ft | 15 kts | 270° |
| 2026-05-04 13:56 | 36.07749 | 10.42770 | 21 ft | 15 kts | 271° |
| 2026-05-04 13:56 | 36.07751 | 10.42510 | 21 ft | 15 kts | 270° |
| 2026-05-04 13:57 | 36.07753 | 10.42378 | 22 ft | 15 kts | 271° |
| 2026-05-04 13:57 | 36.07753 | 10.42245 | 22 ft | 16 kts | 270° |
| 2026-05-04 13:58 | 36.07678 | 10.42045 | 22 ft | 10 kts | 182° |
| 2026-05-04 13:58 | 36.07587 | 10.42097 | 22 ft | 0 kts | 97° |
| 2026-05-04 13:59 | 36.07587 | 10.42098 | 22 ft | 0 kts | 97° |
| 2026-05-04 13:59 | 36.07583 | 10.42282 | 22 ft | 52 kts | 90° |
| 2026-05-04 14:00 | 36.07579 | 10.42987 | 20 ft | 110 kts | 90° |
| 2026-05-04 14:00 | 36.07557 | 10.45520 | 396 ft | 162 kts | 95° |
| 2026-05-04 14:00 | 36.07573 | 10.46914 | 1019 ft | 165 kts | 86° |
| 2026-05-04 14:01 | 36.08142 | 10.48246 | 1310 ft | 193 kts | 46° |
| 2026-05-04 14:01 | 36.09431 | 10.48986 | 1489 ft | 220 kts | 7° |
| 2026-05-04 14:01 | 36.12290 | 10.47301 | 1828 ft | 258 kts | 299° |
| 2026-05-04 14:02 | 36.12872 | 10.45202 | 2294 ft | 261 kts | 269° |
| 2026-05-04 14:02 | 36.12540 | 10.43046 | 3049 ft | 254 kts | 243° |
| 2026-05-04 14:02 | 36.11720 | 10.41100 | 3790 ft | 256 kts | 238° |
| 2026-05-04 14:02 | 36.10820 | 10.39193 | 4601 ft | 257 kts | 237° |
| 2026-05-04 14:03 | 36.09903 | 10.37289 | 5359 ft | 260 kts | 239° |
| 2026-05-04 14:03 | 36.09274 | 10.35191 | 6084 ft | 265 kts | 262° |
| 2026-05-04 14:03 | 36.09435 | 10.32927 | 6820 ft | 268 kts | 286° |
| 2026-05-04 14:03 | 36.10081 | 10.30763 | 7529 ft | 269 kts | 289° |
| 2026-05-04 14:04 | 36.11435 | 10.26407 | 8843 ft | 278 kts | 290° |
| 2026-05-04 14:04 | 36.12132 | 10.24168 | 9579 ft | 280 kts | 290° |
| 2026-05-04 14:04 | 36.12834 | 10.21896 | 10242 ft | 283 kts | 290° |
| 2026-05-04 14:05 | 36.14339 | 10.17002 | 10580 ft | 326 kts | 290° |
| 2026-05-04 14:05 | 36.15132 | 10.14321 | 10998 ft | 335 kts | 286° |
| 2026-05-04 14:05 | 36.15598 | 10.11465 | 11562 ft | 340 kts | 278° |
| 2026-05-04 14:06 | 36.15954 | 10.08565 | 12212 ft | 342 kts | 278° |
| 2026-05-04 14:06 | 36.16309 | 10.05643 | 12872 ft | 344 kts | 278° |
| 2026-05-04 14:06 | 36.16668 | 10.02702 | 13500 ft | 347 kts | 278° |
| 2026-05-04 14:06 | 36.17031 | 9.99738 | 14100 ft | 350 kts | 278° |
| 2026-05-04 14:07 | 36.17412 | 9.96752 | 14670 ft | 353 kts | 278° |
| 2026-05-04 14:07 | 36.17800 | 9.93737 | 15249 ft | 355 kts | 279° |
| 2026-05-04 14:07 | 36.18241 | 9.90763 | 15826 ft | 357 kts | 280° |
| 2026-05-04 14:07 | 36.18712 | 9.87695 | 16414 ft | 359 kts | 279° |
| 2026-05-04 14:08 | 36.19139 | 9.84686 | 16980 ft | 361 kts | 279° |
| 2026-05-04 14:08 | 36.19568 | 9.81607 | 17530 ft | 364 kts | 279° |
| 2026-05-04 14:08 | 36.20002 | 9.78513 | 18068 ft | 366 kts | 279° |
| 2026-05-04 14:08 | 36.20437 | 9.75394 | 18559 ft | 369 kts | 279° |
| 2026-05-04 14:09 | 36.21313 | 9.69095 | 19512 ft | 372 kts | 279° |
| 2026-05-04 14:09 | 36.21755 | 9.65927 | 19982 ft | 374 kts | 279° |
| 2026-05-04 14:10 | 36.22571 | 9.59545 | 20903 ft | 377 kts | 276° |
| 2026-05-04 14:10 | 36.22879 | 9.56317 | 21374 ft | 378 kts | 276° |
| 2026-05-04 14:10 | 36.23181 | 9.53076 | 21847 ft | 380 kts | 276° |
| 2026-05-04 14:10 | 36.23486 | 9.49817 | 22302 ft | 382 kts | 276° |
| 2026-05-04 14:11 | 36.23790 | 9.46543 | 22754 ft | 383 kts | 276° |
| 2026-05-04 14:11 | 36.24396 | 9.39991 | 23632 ft | 386 kts | 276° |
| 2026-05-04 14:11 | 36.24704 | 9.36671 | 23982 ft | 388 kts | 276° |
| 2026-05-04 14:12 | 36.25014 | 9.33344 | 24329 ft | 390 kts | 276° |
| 2026-05-04 14:12 | 36.25324 | 9.29997 | 24667 ft | 392 kts | 276° |
| 2026-05-04 14:12 | 36.25954 | 9.23260 | 25344 ft | 396 kts | 276° |
| 2026-05-04 14:13 | 36.26273 | 9.19853 | 25666 ft | 397 kts | 276° |
| 2026-05-04 14:13 | 36.26595 | 9.16445 | 25996 ft | 399 kts | 276° |
| 2026-05-04 14:13 | 36.26925 | 9.13012 | 26311 ft | 401 kts | 276° |
| 2026-05-04 14:13 | 36.27250 | 9.09567 | 26624 ft | 403 kts | 276° |
| 2026-05-04 14:14 | 36.27580 | 9.06108 | 26951 ft | 405 kts | 276° |
| 2026-05-04 14:14 | 36.28247 | 8.99193 | 27582 ft | 408 kts | 276° |
| 2026-05-04 14:14 | 36.28586 | 8.95694 | 27885 ft | 410 kts | 276° |
| 2026-05-04 14:15 | 36.29275 | 8.88646 | 28456 ft | 414 kts | 276° |
| 2026-05-04 14:15 | 36.30628 | 8.81680 | 29005 ft | 418 kts | 284° |
| 2026-05-04 14:16 | 36.32172 | 8.74696 | 29552 ft | 421 kts | 284° |
| 2026-05-04 14:16 | 36.32946 | 8.71185 | 29828 ft | 423 kts | 284° |
| 2026-05-04 14:17 | 36.34502 | 8.64118 | 30345 ft | 425 kts | 284° |
| 2026-05-04 14:17 | 36.35283 | 8.60578 | 30622 ft | 425 kts | 284° |
| 2026-05-04 14:17 | 36.36836 | 8.53524 | 31314 ft | 422 kts | 283° |
| 2026-05-04 14:18 | 36.37604 | 8.50019 | 31678 ft | 420 kts | 283° |
| 2026-05-04 14:18 | 36.39126 | 8.43047 | 32403 ft | 417 kts | 283° |
| 2026-05-04 14:19 | 36.40473 | 8.36087 | 33118 ft | 412 kts | 276° |
| 2026-05-04 14:19 | 36.40658 | 8.32545 | 33453 ft | 411 kts | 271° |
| 2026-05-04 14:19 | 36.40781 | 8.29046 | 33792 ft | 409 kts | 272° |
| 2026-05-04 14:19 | 36.40908 | 8.25525 | 34135 ft | 408 kts | 272° |
| 2026-05-04 14:20 | 36.41038 | 8.22021 | 34435 ft | 406 kts | 271° |
| 2026-05-04 14:20 | 36.41171 | 8.18506 | 34745 ft | 404 kts | 272° |
| 2026-05-04 14:20 | 36.41301 | 8.15021 | 35049 ft | 403 kts | 271° |
| 2026-05-04 14:21 | 36.41546 | 8.08103 | 35580 ft | 400 kts | 271° |
| 2026-05-04 14:21 | 36.41665 | 8.04662 | 35828 ft | 398 kts | 271° |
| 2026-05-04 14:21 | 36.41784 | 8.01231 | 35976 ft | 397 kts | 271° |
| 2026-05-04 14:21 | 36.41903 | 7.97814 | 36006 ft | 395 kts | 271° |
| 2026-05-04 14:22 | 36.42138 | 7.91026 | 36014 ft | 393 kts | 271° |
| 2026-05-04 14:22 | 36.42365 | 7.84249 | 36005 ft | 392 kts | 271° |
| 2026-05-04 14:23 | 36.42701 | 7.74087 | 36003 ft | 393 kts | 271° |
| 2026-05-04 14:24 | 36.42915 | 7.67346 | 36008 ft | 393 kts | 271° |
| 2026-05-04 14:24 | 36.43126 | 7.60557 | 36014 ft | 393 kts | 271° |
| 2026-05-04 14:25 | 36.43344 | 7.53772 | 36022 ft | 393 kts | 271° |
| 2026-05-04 14:25 | 36.43653 | 7.43593 | 36018 ft | 393 kts | 271° |
| 2026-05-04 14:26 | 36.43818 | 7.37956 | 36015 ft | 393 kts | 271° |
| 2026-05-04 14:26 | 36.44017 | 7.31162 | 36017 ft | 393 kts | 271° |
| 2026-05-04 14:27 | 36.44216 | 7.24378 | 36012 ft | 393 kts | 270° |
| 2026-05-04 14:27 | 36.44400 | 7.17590 | 36012 ft | 393 kts | 270° |
| 2026-05-04 14:28 | 36.44584 | 7.10801 | 36018 ft | 393 kts | 270° |
| 2026-05-04 14:28 | 36.44770 | 7.04019 | 36019 ft | 393 kts | 270° |
| 2026-05-04 14:29 | 36.45129 | 6.90453 | 36043 ft | 393 kts | 270° |
| 2026-05-04 14:30 | 36.45301 | 6.83670 | 36069 ft | 393 kts | 270° |
| 2026-05-04 14:31 | 36.45543 | 6.73487 | 36084 ft | 393 kts | 270° |
| 2026-05-04 14:32 | 36.45862 | 6.59956 | 36079 ft | 393 kts | 270° |
| 2026-05-04 14:32 | 36.46020 | 6.53170 | 36000 ft | 392 kts | 270° |
| 2026-05-04 14:33 | 36.46168 | 6.46394 | 36004 ft | 393 kts | 270° |
| 2026-05-04 14:33 | 36.46314 | 6.39608 | 36009 ft | 393 kts | 270° |
| 2026-05-04 14:34 | 36.46456 | 6.32820 | 35986 ft | 393 kts | 270° |
| 2026-05-04 14:34 | 36.46592 | 6.26029 | 35987 ft | 394 kts | 270° |
| 2026-05-04 14:35 | 36.46724 | 6.19224 | 35991 ft | 394 kts | 270° |
| 2026-05-04 14:35 | 36.46859 | 6.12415 | 36006 ft | 394 kts | 270° |
| 2026-05-04 14:36 | 36.46985 | 6.05604 | 36006 ft | 394 kts | 270° |
| 2026-05-04 14:36 | 36.47105 | 5.98808 | 36005 ft | 394 kts | 269° |
| 2026-05-04 14:37 | 36.47220 | 5.92004 | 36030 ft | 394 kts | 269° |
| 2026-05-04 14:37 | 36.47337 | 5.85199 | 36024 ft | 394 kts | 270° |
| 2026-05-04 14:38 | 36.47455 | 5.78438 | 36016 ft | 393 kts | 270° |
| 2026-05-04 14:38 | 36.47561 | 5.71637 | 36017 ft | 393 kts | 269° |
| 2026-05-04 14:39 | 36.47666 | 5.64847 | 36027 ft | 393 kts | 269° |
| 2026-05-04 14:39 | 36.47763 | 5.58067 | 36029 ft | 392 kts | 269° |
| 2026-05-04 14:40 | 36.47902 | 5.47914 | 36041 ft | 391 kts | 269° |
| 2026-05-04 14:40 | 36.47994 | 5.41203 | 36044 ft | 391 kts | 269° |
| 2026-05-04 14:41 | 36.48079 | 5.34453 | 36034 ft | 391 kts | 269° |
| 2026-05-04 14:42 | 36.48235 | 5.20946 | 36048 ft | 390 kts | 269° |
| 2026-05-04 14:42 | 36.48308 | 5.14213 | 36030 ft | 389 kts | 269° |
| 2026-05-04 14:43 | 36.48378 | 5.07486 | 36013 ft | 389 kts | 268° |
| 2026-05-04 14:43 | 36.48444 | 5.00770 | 36014 ft | 389 kts | 271° |
| 2026-05-04 14:44 | 36.49186 | 4.94133 | 36024 ft | 390 kts | 276° |
| 2026-05-04 14:44 | 36.50015 | 4.87463 | 36017 ft | 391 kts | 276° |
| 2026-05-04 14:45 | 36.50832 | 4.80786 | 36015 ft | 390 kts | 276° |
| 2026-05-04 14:45 | 36.51644 | 4.74128 | 36015 ft | 389 kts | 275° |
| 2026-05-04 14:46 | 36.52456 | 4.67465 | 36013 ft | 389 kts | 275° |
| 2026-05-04 14:46 | 36.53263 | 4.60806 | 36011 ft | 389 kts | 275° |
| 2026-05-04 14:47 | 36.54074 | 4.54149 | 36012 ft | 388 kts | 275° |
| 2026-05-04 14:47 | 36.54873 | 4.47511 | 36010 ft | 388 kts | 275° |
| 2026-05-04 14:48 | 36.55667 | 4.40882 | 35995 ft | 387 kts | 275° |
| 2026-05-04 14:48 | 36.56453 | 4.34256 | 35992 ft | 387 kts | 275° |
| 2026-05-04 14:49 | 36.57234 | 4.27675 | 36000 ft | 387 kts | 275° |
| 2026-05-04 14:49 | 36.58018 | 4.21042 | 35989 ft | 387 kts | 275° |
| 2026-05-04 14:50 | 36.58797 | 4.14406 | 36012 ft | 387 kts | 275° |
| 2026-05-04 14:50 | 36.59573 | 4.07783 | 36012 ft | 386 kts | 275° |
| 2026-05-04 14:51 | 36.60334 | 4.01165 | 36011 ft | 385 kts | 275° |
| 2026-05-04 14:51 | 36.61095 | 3.94567 | 36014 ft | 385 kts | 275° |
| 2026-05-04 14:52 | 36.61857 | 3.87973 | 36012 ft | 384 kts | 275° |
| 2026-05-04 14:52 | 36.62615 | 3.81387 | 36014 ft | 384 kts | 275° |
| 2026-05-04 14:53 | 36.63364 | 3.74842 | 36029 ft | 384 kts | 275° |
| 2026-05-04 14:53 | 36.64108 | 3.68269 | 36023 ft | 383 kts | 275° |
| 2026-05-04 14:54 | 36.64847 | 3.61703 | 36021 ft | 382 kts | 274° |
| 2026-05-04 14:54 | 36.64623 | 3.55162 | 36023 ft | 378 kts | 260° |
| 2026-05-04 14:55 | 36.63788 | 3.48743 | 36024 ft | 378 kts | 260° |
| 2026-05-04 14:55 | 36.62960 | 3.42275 | 36027 ft | 378 kts | 260° |
| 2026-05-04 14:56 | 36.62130 | 3.35804 | 36032 ft | 378 kts | 260° |
| 2026-05-04 14:56 | 36.61292 | 3.29338 | 36034 ft | 378 kts | 260° |
| 2026-05-04 14:57 | 36.60451 | 3.22873 | 36035 ft | 378 kts | 260° |
| 2026-05-04 14:57 | 36.59601 | 3.16406 | 36037 ft | 379 kts | 260° |
| 2026-05-04 14:58 | 36.58739 | 3.09941 | 36035 ft | 378 kts | 260° |
| 2026-05-04 14:58 | 36.57880 | 3.03484 | 36045 ft | 378 kts | 260° |
| 2026-05-04 14:59 | 36.57028 | 2.97019 | 36042 ft | 378 kts | 260° |
| 2026-05-04 15:00 | 36.55734 | 2.87397 | 36032 ft | 377 kts | 260° |
| 2026-05-04 15:00 | 36.54875 | 2.80974 | 36030 ft | 377 kts | 260° |
| 2026-05-04 15:01 | 36.53577 | 2.71336 | 36029 ft | 376 kts | 260° |
| 2026-05-04 15:01 | 36.52711 | 2.64913 | 36043 ft | 376 kts | 260° |
| 2026-05-04 15:02 | 36.51852 | 2.58550 | 36035 ft | 375 kts | 260° |
| 2026-05-04 15:02 | 36.50982 | 2.52162 | 36033 ft | 374 kts | 259° |
| 2026-05-04 15:03 | 36.50105 | 2.45783 | 36029 ft | 374 kts | 259° |
| 2026-05-04 15:03 | 36.49224 | 2.39412 | 36029 ft | 374 kts | 259° |
| 2026-05-04 15:04 | 36.48346 | 2.33050 | 36026 ft | 373 kts | 259° |
| 2026-05-04 15:04 | 36.47460 | 2.26691 | 36014 ft | 373 kts | 259° |
| 2026-05-04 15:05 | 36.46576 | 2.20341 | 36018 ft | 373 kts | 260° |
| 2026-05-04 15:05 | 36.45695 | 2.14011 | 36013 ft | 372 kts | 259° |
| 2026-05-04 15:06 | 36.44806 | 2.07673 | 36012 ft | 372 kts | 260° |
| 2026-05-04 15:07 | 36.43458 | 1.98178 | 36001 ft | 371 kts | 260° |
| 2026-05-04 15:07 | 36.42557 | 1.91859 | 36001 ft | 371 kts | 260° |
| 2026-05-04 15:08 | 36.41657 | 1.85553 | 36029 ft | 370 kts | 260° |
| 2026-05-04 15:08 | 36.40769 | 1.79313 | 36023 ft | 368 kts | 259° |
| 2026-05-04 15:09 | 36.39875 | 1.73060 | 36023 ft | 367 kts | 260° |
| 2026-05-04 15:09 | 36.38979 | 1.66838 | 36023 ft | 365 kts | 260° |
| 2026-05-04 15:10 | 36.37626 | 1.57536 | 36014 ft | 364 kts | 259° |
| 2026-05-04 15:11 | 36.35989 | 1.48375 | 36036 ft | 365 kts | 249° |
| 2026-05-04 15:11 | 36.34036 | 1.42569 | 36039 ft | 364 kts | 249° |
| 2026-05-04 15:12 | 36.32402 | 1.37704 | 36013 ft | 364 kts | 249° |
| 2026-05-04 15:12 | 36.30464 | 1.31941 | 36012 ft | 364 kts | 249° |
| 2026-05-04 15:13 | 36.28516 | 1.26152 | 36013 ft | 364 kts | 249° |
| 2026-05-04 15:13 | 36.26561 | 1.20363 | 36007 ft | 364 kts | 249° |
| 2026-05-04 15:14 | 36.24600 | 1.14570 | 36005 ft | 365 kts | 249° |
| 2026-05-04 15:14 | 36.22640 | 1.08783 | 35985 ft | 364 kts | 249° |
| 2026-05-04 15:15 | 36.20679 | 1.02995 | 35986 ft | 364 kts | 249° |
| 2026-05-04 15:15 | 36.18716 | 0.97211 | 35987 ft | 365 kts | 249° |
| 2026-05-04 15:16 | 36.15757 | 0.88531 | 35991 ft | 365 kts | 249° |
| 2026-05-04 15:17 | 36.12789 | 0.79864 | 35990 ft | 365 kts | 249° |
| 2026-05-04 15:17 | 36.09841 | 0.71229 | 36003 ft | 365 kts | 248° |
| 2026-05-04 15:18 | 36.07853 | 0.65456 | 36004 ft | 364 kts | 248° |
| 2026-05-04 15:19 | 36.04861 | 0.56806 | 36000 ft | 365 kts | 248° |
| 2026-05-04 15:19 | 36.01877 | 0.48163 | 36002 ft | 365 kts | 248° |
| 2026-05-04 15:20 | 35.99889 | 0.42395 | 36010 ft | 365 kts | 248° |
| 2026-05-04 15:20 | 35.97889 | 0.36636 | 36013 ft | 365 kts | 248° |
| 2026-05-04 15:21 | 35.95881 | 0.30877 | 36012 ft | 365 kts | 248° |
| 2026-05-04 15:22 | 35.92883 | 0.22274 | 36008 ft | 365 kts | 248° |
| 2026-05-04 15:22 | 35.90589 | 0.13377 | 36006 ft | 367 kts | 265° |
| 2026-05-04 15:23 | 35.91326 | 0.07101 | 36005 ft | 375 kts | 280° |
| 2026-05-04 15:23 | 35.92728 | 0.00892 | 36001 ft | 375 kts | 280° |
| 2026-05-04 15:24 | 35.95495 | -0.11534 | 36004 ft | 376 kts | 279° |
| 2026-05-04 15:25 | 35.96876 | -0.17762 | 36006 ft | 376 kts | 279° |
| 2026-05-04 15:26 | 35.98940 | -0.27101 | 36010 ft | 376 kts | 279° |
| 2026-05-04 15:26 | 36.00995 | -0.36442 | 36004 ft | 376 kts | 279° |
| 2026-05-04 15:27 | 36.03045 | -0.45792 | 36009 ft | 376 kts | 279° |
| 2026-05-04 15:28 | 36.05077 | -0.55107 | 36006 ft | 376 kts | 279° |
| 2026-05-04 15:29 | 36.07112 | -0.64464 | 35997 ft | 376 kts | 279° |
| 2026-05-04 15:30 | 36.10059 | -0.86510 | 36013 ft | 369 kts | 271° |
| 2026-05-04 15:31 | 36.10764 | -0.95951 | 36001 ft | 369 kts | 271° |
| 2026-05-04 15:32 | 36.11921 | -1.11743 | 35994 ft | 368 kts | 271° |
| 2026-05-04 15:34 | 36.13056 | -1.27530 | 35995 ft | 368 kts | 271° |
| 2026-05-04 15:34 | 36.13726 | -1.36987 | 35986 ft | 368 kts | 271° |
| 2026-05-04 15:35 | 36.14392 | -1.46444 | 35984 ft | 368 kts | 271° |
| 2026-05-04 15:36 | 36.15045 | -1.55910 | 35993 ft | 368 kts | 271° |
| 2026-05-04 15:36 | 36.15476 | -1.62229 | 35995 ft | 368 kts | 271° |
| 2026-05-04 15:37 | 36.15900 | -1.68505 | 35990 ft | 368 kts | 270° |
| 2026-05-04 15:37 | 36.16322 | -1.74814 | 35986 ft | 368 kts | 270° |
| 2026-05-04 15:38 | 36.16742 | -1.81118 | 35972 ft | 367 kts | 270° |
| 2026-05-04 15:38 | 36.17167 | -1.87427 | 35981 ft | 368 kts | 270° |
| 2026-05-04 15:39 | 36.17589 | -1.93728 | 35993 ft | 368 kts | 270° |
| 2026-05-04 15:39 | 36.18008 | -2.00045 | 35801 ft | 368 kts | 270° |
| 2026-05-04 15:40 | 36.18216 | -2.03203 | 35553 ft | 368 kts | 270° |
| 2026-05-04 15:40 | 36.18420 | -2.06369 | 35306 ft | 369 kts | 270° |
| 2026-05-04 15:40 | 36.18624 | -2.09534 | 35061 ft | 369 kts | 270° |
| 2026-05-04 15:40 | 36.18828 | -2.12709 | 34827 ft | 370 kts | 270° |
| 2026-05-04 15:41 | 36.19031 | -2.15888 | 34582 ft | 371 kts | 270° |
| 2026-05-04 15:41 | 36.19232 | -2.19079 | 34342 ft | 372 kts | 269° |
| 2026-05-04 15:41 | 36.19432 | -2.22273 | 34111 ft | 373 kts | 269° |
| 2026-05-04 15:41 | 36.19633 | -2.25441 | 33864 ft | 374 kts | 269° |
| 2026-05-04 15:42 | 36.19835 | -2.28653 | 33593 ft | 375 kts | 269° |
| 2026-05-04 15:42 | 36.20035 | -2.31873 | 33340 ft | 375 kts | 269° |
| 2026-05-04 15:42 | 36.20234 | -2.35088 | 33075 ft | 374 kts | 270° |
| 2026-05-04 15:42 | 36.20433 | -2.38292 | 32790 ft | 371 kts | 270° |
| 2026-05-04 15:43 | 36.20631 | -2.41450 | 32349 ft | 365 kts | 270° |
| 2026-05-04 15:43 | 36.20828 | -2.44569 | 31903 ft | 361 kts | 270° |
| 2026-05-04 15:43 | 36.21023 | -2.47649 | 31456 ft | 356 kts | 270° |
| 2026-05-04 15:43 | 36.21214 | -2.50688 | 31019 ft | 352 kts | 270° |
| 2026-05-04 15:44 | 36.21399 | -2.53702 | 30587 ft | 348 kts | 270° |
| 2026-05-04 15:44 | 36.21578 | -2.56673 | 30163 ft | 344 kts | 270° |
| 2026-05-04 15:44 | 36.21752 | -2.59610 | 29695 ft | 340 kts | 270° |
| 2026-05-04 15:44 | 36.21924 | -2.62506 | 29281 ft | 334 kts | 270° |
| 2026-05-04 15:45 | 36.22091 | -2.65319 | 28887 ft | 329 kts | 270° |
| 2026-05-04 15:45 | 36.22255 | -2.68124 | 28495 ft | 324 kts | 270° |
| 2026-05-04 15:45 | 36.22418 | -2.70894 | 28083 ft | 321 kts | 270° |
| 2026-05-04 15:45 | 36.22578 | -2.73640 | 27696 ft | 319 kts | 270° |
| 2026-05-04 15:46 | 36.22739 | -2.76373 | 27316 ft | 318 kts | 270° |
| 2026-05-04 15:46 | 36.22900 | -2.79097 | 26941 ft | 316 kts | 270° |
| 2026-05-04 15:46 | 36.23059 | -2.81816 | 26568 ft | 315 kts | 270° |
| 2026-05-04 15:46 | 36.23216 | -2.84521 | 26202 ft | 314 kts | 270° |
| 2026-05-04 15:47 | 36.23371 | -2.87217 | 25847 ft | 313 kts | 270° |
| 2026-05-04 15:47 | 36.23526 | -2.89907 | 25488 ft | 312 kts | 270° |
| 2026-05-04 15:47 | 36.23681 | -2.92584 | 25127 ft | 311 kts | 270° |
| 2026-05-04 15:47 | 36.23834 | -2.95228 | 24795 ft | 311 kts | 270° |
| 2026-05-04 15:48 | 36.23988 | -2.97896 | 24446 ft | 310 kts | 270° |
| 2026-05-04 15:48 | 36.24141 | -3.00554 | 24101 ft | 309 kts | 270° |
| 2026-05-04 15:48 | 36.24442 | -3.05850 | 23372 ft | 307 kts | 270° |
| 2026-05-04 15:49 | 36.24590 | -3.08482 | 22987 ft | 306 kts | 270° |
| 2026-05-04 15:49 | 36.24734 | -3.11108 | 22630 ft | 305 kts | 270° |
| 2026-05-04 15:49 | 36.24878 | -3.13722 | 22272 ft | 303 kts | 270° |
| 2026-05-04 15:49 | 36.25020 | -3.16324 | 21918 ft | 302 kts | 270° |
| 2026-05-04 15:50 | 36.25164 | -3.18918 | 21560 ft | 301 kts | 270° |
| 2026-05-04 15:50 | 36.25309 | -3.21499 | 21204 ft | 300 kts | 270° |
| 2026-05-04 15:50 | 36.25452 | -3.24073 | 20843 ft | 299 kts | 270° |
| 2026-05-04 15:50 | 36.25593 | -3.26638 | 20479 ft | 297 kts | 270° |
| 2026-05-04 15:51 | 36.25730 | -3.29186 | 20118 ft | 296 kts | 270° |
| 2026-05-04 15:51 | 36.25867 | -3.31728 | 19755 ft | 295 kts | 270° |
| 2026-05-04 15:51 | 36.26274 | -3.34251 | 19169 ft | 305 kts | 285° |
| 2026-05-04 15:51 | 36.27014 | -3.36734 | 18630 ft | 308 kts | 285° |
| 2026-05-04 15:52 | 36.27774 | -3.39254 | 17910 ft | 315 kts | 286° |
| 2026-05-04 15:52 | 36.28547 | -3.41805 | 17510 ft | 318 kts | 286° |
| 2026-05-04 15:52 | 36.29328 | -3.44376 | 17128 ft | 319 kts | 287° |
| 2026-05-04 15:52 | 36.30110 | -3.46951 | 16750 ft | 319 kts | 287° |
| 2026-05-04 15:53 | 36.30880 | -3.49489 | 16368 ft | 318 kts | 287° |
| 2026-05-04 15:53 | 36.31654 | -3.52048 | 15991 ft | 316 kts | 287° |
| 2026-05-04 15:53 | 36.32423 | -3.54597 | 15615 ft | 315 kts | 287° |
| 2026-05-04 15:53 | 36.33186 | -3.57135 | 15238 ft | 313 kts | 287° |
| 2026-05-04 15:54 | 36.33945 | -3.59663 | 14864 ft | 312 kts | 287° |
| 2026-05-04 15:54 | 36.34704 | -3.62181 | 14489 ft | 311 kts | 287° |
| 2026-05-04 15:54 | 36.35461 | -3.64697 | 14118 ft | 310 kts | 287° |
| 2026-05-04 15:54 | 36.36210 | -3.67196 | 13730 ft | 309 kts | 287° |
| 2026-05-04 15:55 | 36.36953 | -3.69685 | 13339 ft | 307 kts | 287° |
| 2026-05-04 15:55 | 36.37690 | -3.72159 | 12944 ft | 305 kts | 287° |
| 2026-05-04 15:55 | 36.38421 | -3.74617 | 12574 ft | 303 kts | 287° |
| 2026-05-04 15:55 | 36.39152 | -3.77058 | 12201 ft | 301 kts | 287° |
| 2026-05-04 15:56 | 36.39877 | -3.79480 | 11790 ft | 299 kts | 287° |
| 2026-05-04 15:56 | 36.40600 | -3.81891 | 11398 ft | 296 kts | 287° |
| 2026-05-04 15:56 | 36.41308 | -3.84284 | 10991 ft | 294 kts | 287° |
| 2026-05-04 15:56 | 36.42004 | -3.86662 | 10580 ft | 292 kts | 287° |
| 2026-05-04 15:57 | 36.42460 | -3.88230 | 10329 ft | 291 kts | 287° |
| 2026-05-04 15:57 | 36.43140 | -3.90559 | 10139 ft | 282 kts | 287° |
| 2026-05-04 15:57 | 36.43795 | -3.92804 | 10009 ft | 271 kts | 287° |
| 2026-05-04 15:57 | 36.44429 | -3.94979 | 9840 ft | 265 kts | 287° |
| 2026-05-04 15:58 | 36.45058 | -3.97147 | 9399 ft | 269 kts | 287° |
| 2026-05-04 15:58 | 36.45693 | -3.99331 | 8978 ft | 268 kts | 287° |
| 2026-05-04 15:58 | 36.46326 | -4.01515 | 8553 ft | 267 kts | 288° |
| 2026-05-04 15:58 | 36.46948 | -4.03662 | 8216 ft | 261 kts | 288° |
| 2026-05-04 15:59 | 36.47562 | -4.05777 | 7652 ft | 260 kts | 289° |
| 2026-05-04 15:59 | 36.48175 | -4.07890 | 7051 ft | 260 kts | 289° |
| 2026-05-04 15:59 | 36.48786 | -4.10008 | 6466 ft | 260 kts | 290° |
| 2026-05-04 15:59 | 36.49400 | -4.12127 | 5905 ft | 261 kts | 290° |
| 2026-05-04 16:00 | 36.50010 | -4.14239 | 5440 ft | 259 kts | 290° |
| 2026-05-04 16:00 | 36.50612 | -4.16323 | 5050 ft | 253 kts | 291° |
| 2026-05-04 16:00 | 36.51198 | -4.18354 | 4700 ft | 246 kts | 292° |
| 2026-05-04 16:00 | 36.51769 | -4.20325 | 4383 ft | 239 kts | 291° |
| 2026-05-04 16:01 | 36.52327 | -4.22249 | 4105 ft | 235 kts | 290° |
| 2026-05-04 16:01 | 36.52871 | -4.24132 | 3913 ft | 226 kts | 290° |
| 2026-05-04 16:01 | 36.53387 | -4.25916 | 3722 ft | 214 kts | 290° |
| 2026-05-04 16:01 | 36.53873 | -4.27598 | 3513 ft | 205 kts | 290° |
| 2026-05-04 16:02 | 36.54344 | -4.29237 | 3324 ft | 197 kts | 290° |
| 2026-05-04 16:02 | 36.54796 | -4.30812 | 3140 ft | 191 kts | 289° |
| 2026-05-04 16:02 | 36.55943 | -4.33728 | 2847 ft | 183 kts | 306° |
| 2026-05-04 16:03 | 36.56736 | -4.34878 | 2764 ft | 167 kts | 309° |
| 2026-05-04 16:03 | 36.57480 | -4.35926 | 2631 ft | 157 kts | 309° |
| 2026-05-04 16:03 | 36.58195 | -4.36926 | 2459 ft | 152 kts | 308° |
| 2026-05-04 16:03 | 36.58893 | -4.37898 | 2290 ft | 149 kts | 308° |
| 2026-05-04 16:04 | 36.59575 | -4.38845 | 2090 ft | 149 kts | 304° |
| 2026-05-04 16:04 | 36.60917 | -4.40722 | 1761 ft | 134 kts | 304° |
| 2026-05-04 16:04 | 36.61555 | -4.41605 | 1513 ft | 140 kts | 304° |
| 2026-05-04 16:05 | 36.62212 | -4.42527 | 1346 ft | 142 kts | 302° |
| 2026-05-04 16:05 | 36.62865 | -4.43443 | 1155 ft | 141 kts | 302° |
| 2026-05-04 16:05 | 36.64183 | -4.45281 | 751 ft | 144 kts | 302° |
| 2026-05-04 16:06 | 36.64860 | -4.46227 | 546 ft | 148 kts | 303° |
| 2026-05-04 16:06 | 36.66754 | -4.48872 | 50 ft | 154 kts | 308° |
| 2026-05-04 16:07 | 36.67475 | -4.49888 | 48 ft | 63 kts | 312° |
| 2026-05-04 16:07 | 36.67883 | -4.50175 | 48 ft | 6 kts | 118° |
| 2026-05-04 16:08 | 36.67857 | -4.50135 | 48 ft | 5 kts | 128° |
| 2026-05-04 16:08 | 36.67809 | -4.50061 | 49 ft | 2 kts | 129° |
| 2026-05-04 16:09 | 36.67793 | -4.50037 | 49 ft | 6 kts | 132° |
| 2026-05-04 16:09 | 36.67680 | -4.49881 | 47 ft | 15 kts | 131° |
| 2026-05-04 16:10 | 36.67541 | -4.49685 | 48 ft | 15 kts | 131° |
| 2026-05-04 16:11 | 36.67331 | -4.49371 | 48 ft | 12 kts | 101° |
| 2026-05-04 16:11 | 36.67358 | -4.49277 | 48 ft | 11 kts | 87° |
| 2026-05-04 16:12 | 36.67386 | -4.49095 | 48 ft | 1 kts | 110° |
| 2026-05-04 16:12 | 36.67385 | -4.49092 | 49 ft | 0 kts | 110° |